Huvudsida
METAR-TAF:

METAR-TAF

Flygplatser :

Niamey, Niger

latitud: 13-29N, longitud: 002-10E, höjd: 223 m

Aktuellt väderrapport

Denna rapport gjordes för 33 minuter sedan, klockan 07:00 UTC
Vind 2 kt varierande vindriktning
Temperatur 28°C
Fuktighet 74%
Tryck 1015 hPa
Sikt 10 km eller mer
Få moln på en höjd av 2000 ft

METAR: DRRN 150700Z VRB02KT 9999 FEW020 28/23 Q1015 NOSIG

Tid: 08:33 (07:33 UTC)

Väderprognos

Denna rapport gjordes för 2 timmar och 33 minuter sedan, klockan 05:00 UTC
Prognos gäller från 15 kl. 06 UTC till 16 kl. 12 UTC
Vind 6 kt från sydväst
Sikt: 8000 m
Sannolikhet 30% :
Temporärt
från 15 kl. 14 UTC till 15 kl. 20 UTC
Vind 20 kt från ost i byarna ända upp till 35 kt
Sikt: 1000 m
Brutna moln på en höjd av 1600 ft
Spridda moln på en höjd av 2600 ft, Cumulonimbus.
åska, regn

TAF: DRRN 150500Z 1506/1612 22006KT 8000 NSC PROB30 TEMPO 1514/1520 08020G35KT 1000 BLU TSRA BKN016 SCT026CB

Aktuella väderrapporter och prognoser från 4000 flygplatser (METAR- och TAF-rapporter).

De tillgängliga stationerna syns som gula och röda prickar på kartan.

För musen över prickarna för att se namnen på stationerna.

Klicka sedan för att få väderrapporter och prognoser.

För att ändra kartan: Klicka på de gröna knapparna med ett svart kors på för att zooma in; den gröna knappen med ett streck på för att zooma ut; eller på de gröna pilarna för angränsande kartor.


METAR-TAF: